createdAt,value
2023-01-04T00:01:05.093Z,32.33
2023-01-04T00:03:32.492Z,32.70
2023-01-04T00:06:02.933Z,35.75
2023-01-04T00:08:29.772Z,32.05
2023-01-04T00:11:04.262Z,33.17
2023-01-04T00:13:31.798Z,31.60
2023-01-04T00:16:03.899Z,29.20
2023-01-04T00:18:36.173Z,32.65
2023-01-04T00:23:38.593Z,31.10
2023-01-04T00:26:14.104Z,27.80
2023-01-04T00:28:41.533Z,27.95
2023-01-04T00:31:10.973Z,30.70
2023-01-04T00:33:37.979Z,31.05
2023-01-04T00:36:13.936Z,33.08
2023-01-04T00:38:42.098Z,30.92
2023-01-04T00:41:23.182Z,30.45
2023-01-04T00:43:57.176Z,38.97
2023-01-04T00:46:23.893Z,39.15
2023-01-04T00:48:51.853Z,28.95
2023-01-04T00:51:22.051Z,28.27
2023-01-04T00:53:48.843Z,29.63
2023-01-04T00:56:15.590Z,28.30
2023-01-04T00:58:42.328Z,31.40
2023-01-04T01:01:09.348Z,31.20
2023-01-04T01:03:38.617Z,29.90
2023-01-04T01:06:07.856Z,27.38
2023-01-04T01:08:35.311Z,30.65
2023-01-04T01:11:10.227Z,39.05
2023-01-04T01:13:38.046Z,34.53
2023-01-04T01:16:10.625Z,28.42
2023-01-04T01:18:39.374Z,33.92
2023-01-04T01:23:34.162Z,31.42
2023-01-04T01:26:06.209Z,34.65
2023-01-04T01:28:34.766Z,29.45
2023-01-04T01:33:37.498Z,26.35
2023-01-04T01:36:05.761Z,34.92
2023-01-04T01:38:32.783Z,39.83
2023-01-04T01:40:59.939Z,33.22
2023-01-04T01:43:56.262Z,38.33
2023-01-04T01:46:31.429Z,40.28
2023-01-04T01:49:14.749Z,44.05
2023-01-04T01:51:42.813Z,40.35
2023-01-04T01:54:26.746Z,37.53
2023-01-04T01:56:55.902Z,32.33
2023-01-04T01:59:23.037Z,32.70
2023-01-04T02:01:49.978Z,30.55
2023-01-04T02:04:17.478Z,27.98
2023-01-04T02:06:49.784Z,31.35
2023-01-04T02:09:17.719Z,28.02
2023-01-04T02:11:44.586Z,28.30
2023-01-04T02:14:28.660Z,28.85
2023-01-04T02:17:01.129Z,30.65
2023-01-04T02:20:08.294Z,29.17
2023-01-04T02:22:56.845Z,26.67
2023-01-04T02:25:54.229Z,24.35
2023-01-04T02:28:58.229Z,26.92
2023-01-04T02:31:36.841Z,28.17
2023-01-04T02:34:42.445Z,31.15
2023-01-04T02:37:21.176Z,42.40
2023-01-04T02:40:09.127Z,37.67
2023-01-04T02:43:21.228Z,37.67
2023-01-04T02:46:08.353Z,45.33
2023-01-04T02:51:31.126Z,36.53
2023-01-04T02:54:02.377Z,40.70
2023-01-04T02:56:37.705Z,39.40
2023-01-04T02:59:46.338Z,35.42
2023-01-04T03:03:12.654Z,44.95
2023-01-04T03:06:17.794Z,40.97
2023-01-04T03:08:59.189Z,39.38
2023-01-04T03:11:55.606Z,41.10
2023-01-04T03:14:31.479Z,38.60
2023-01-04T03:17:04.082Z,37.45
2023-01-04T03:19:50.684Z,38.60
2023-01-04T03:22:49.062Z,39.78
2023-01-04T03:25:39.027Z,44.65
2023-01-04T03:28:25.863Z,47.13
2023-01-04T03:31:20.892Z,45.97
2023-01-04T03:34:06.075Z,40.78
2023-01-04T03:36:45.391Z,35.78
2023-01-04T03:39:43.675Z,36.83
2023-01-04T03:42:48.632Z,42.25
2023-01-04T03:45:42.100Z,43.95
2023-01-04T03:48:29.260Z,37.58
2023-01-04T03:53:38.020Z,52.33
2023-01-04T03:56:07.421Z,46.78
2023-01-04T03:58:35.090Z,37.80
2023-01-04T04:01:04.540Z,42.60
2023-01-04T04:03:50.801Z,36.75
2023-01-04T04:06:36.064Z,41.85
2023-01-04T04:09:04.297Z,39.22
2023-01-04T04:11:31.065Z,114.10
2023-01-04T04:13:58.406Z,66.13
2023-01-04T04:16:25.555Z,58.05
2023-01-04T04:18:52.561Z,50.30
2023-01-04T04:21:19.360Z,53.42
2023-01-04T04:23:46.173Z,53.60
2023-01-04T04:26:12.867Z,47.50
2023-01-04T04:28:39.701Z,53.75
2023-01-04T04:31:07.017Z,51.20
2023-01-04T04:33:33.756Z,60.63
2023-01-04T04:36:00.522Z,53.65
2023-01-04T04:38:27.286Z,50.83
2023-01-04T04:41:12.804Z,54.63
2023-01-04T04:43:39.526Z,46.78
2023-01-04T04:46:06.487Z,49.25
2023-01-04T04:48:33.364Z,50.17
2023-01-04T04:51:00.268Z,39.17
2023-01-04T04:53:27.009Z,39.35
2023-01-04T04:55:54.441Z,37.20
2023-01-04T04:58:21.647Z,38.05
2023-01-04T05:00:48.452Z,35.15
2023-01-04T05:03:15.329Z,30.55
2023-01-04T05:05:42.768Z,32.70
2023-01-04T05:08:09.550Z,32.67
2023-01-04T05:10:37.705Z,29.17
2023-01-04T05:13:06.859Z,32.78
2023-01-04T05:15:37.021Z,31.05
2023-01-04T05:18:05.220Z,39.10
2023-01-04T05:20:32.476Z,31.77
2023-01-04T05:22:59.314Z,37.42
2023-01-04T05:25:26.245Z,40.42
2023-01-04T05:27:53.107Z,36.97
2023-01-04T05:30:38.893Z,33.85
2023-01-04T05:33:06.962Z,30.45
2023-01-04T05:35:33.717Z,35.15
2023-01-04T05:38:00.662Z,32.72
2023-01-04T05:40:27.477Z,34.63
2023-01-04T05:42:54.250Z,36.10
2023-01-04T05:45:21.292Z,33.40
2023-01-04T05:47:52.819Z,40.13
2023-01-04T05:50:21.393Z,37.00
2023-01-04T05:52:48.782Z,46.72
2023-01-04T05:55:15.992Z,47.97
2023-01-04T05:57:43.232Z,65.95
2023-01-04T06:00:11.773Z,68.38
2023-01-04T06:02:42.978Z,46.70
2023-01-04T06:07:38.892Z,35.53
2023-01-04T06:10:10.386Z,44.35
2023-01-04T06:12:37.738Z,43.83
2023-01-04T06:15:05.992Z,44.08
2023-01-04T06:17:33.090Z,46.38
2023-01-04T06:19:59.936Z,37.83
2023-01-04T06:22:28.174Z,35.75
2023-01-04T06:24:55.098Z,39.85
2023-01-04T06:27:21.963Z,51.83
2023-01-04T06:29:48.699Z,62.80
2023-01-04T06:32:15.549Z,68.05
2023-01-04T06:34:42.361Z,63.15
2023-01-04T06:37:09.958Z,44.67
2023-01-04T06:39:37.384Z,49.67
2023-01-04T06:42:06.838Z,55.65
2023-01-04T06:44:34.188Z,70.97
2023-01-04T06:47:00.897Z,96.00
2023-01-04T06:49:27.669Z,67.90
2023-01-04T06:51:54.442Z,51.65
2023-01-04T06:54:21.190Z,40.60
2023-01-04T06:56:47.920Z,42.80
2023-01-04T06:59:14.671Z,35.72
2023-01-04T07:01:41.588Z,34.38
2023-01-04T07:04:08.514Z,39.10
2023-01-04T07:06:35.341Z,44.03
2023-01-04T07:09:02.091Z,51.83
2023-01-04T07:11:28.769Z,38.95
2023-01-04T07:13:55.524Z,43.63
2023-01-04T07:16:22.319Z,37.28
2023-01-04T07:18:49.705Z,36.10
2023-01-04T07:21:16.433Z,36.33
2023-01-04T07:23:44.307Z,29.75
2023-01-04T07:26:11.000Z,27.35
2023-01-04T07:29:13.150Z,32.97
2023-01-04T07:31:40.020Z,31.98
2023-01-04T07:34:06.937Z,33.40
2023-01-04T07:36:33.668Z,30.50
2023-01-04T07:39:01.312Z,29.90
2023-01-04T07:41:28.083Z,44.75
2023-01-04T07:43:54.852Z,35.55
2023-01-04T07:46:22.179Z,27.77
2023-01-04T07:48:49.017Z,29.77
2023-01-04T07:51:16.304Z,27.15
2023-01-04T07:53:43.105Z,26.38
2023-01-04T07:56:15.132Z,28.60
2023-01-04T07:58:45.170Z,30.70
2023-01-04T08:01:15.165Z,29.40
2023-01-04T08:03:42.150Z,30.55
2023-01-04T08:06:11.659Z,36.72
2023-01-04T08:08:40.148Z,34.83
2023-01-04T08:13:34.473Z,36.30
2023-01-04T08:16:01.338Z,42.40
2023-01-04T08:18:28.071Z,46.13
2023-01-04T08:21:12.983Z,42.10
2023-01-04T08:23:40.551Z,39.85
2023-01-04T08:26:10.303Z,36.38
2023-01-04T08:28:37.752Z,39.25
2023-01-04T08:31:10.934Z,29.20
2023-01-04T08:33:38.953Z,30.60
2023-01-04T08:36:27.728Z,31.35
2023-01-04T08:39:02.007Z,34.00
2023-01-04T08:44:37.769Z,27.45
2023-01-04T08:47:05.243Z,21.58
2023-01-04T08:49:32.224Z,19.80
2023-01-04T08:51:59.063Z,24.08
2023-01-04T08:54:25.804Z,22.80
2023-01-04T08:56:52.506Z,24.45
2023-01-04T08:59:19.325Z,19.38
2023-01-04T09:01:46.968Z,22.55
2023-01-04T09:04:13.984Z,25.00
2023-01-04T09:06:40.781Z,21.85
2023-01-04T09:09:07.556Z,22.02
2023-01-04T09:11:35.316Z,25.90
2023-01-04T09:14:08.068Z,24.40
2023-01-04T09:16:36.806Z,24.30
2023-01-04T09:19:04.861Z,23.42
2023-01-04T09:21:31.729Z,24.95
2023-01-04T09:23:59.218Z,21.83
2023-01-04T09:26:26.274Z,22.58
2023-01-04T09:28:55.182Z,29.88
2023-01-04T09:31:25.509Z,28.30
2023-01-04T09:36:40.000Z,29.23
2023-01-04T09:39:06.893Z,58.22
2023-01-04T09:41:43.240Z,33.40
2023-01-04T09:44:09.960Z,28.17
2023-01-04T09:47:04.208Z,29.15
2023-01-04T09:49:37.894Z,28.67
2023-01-04T09:52:10.680Z,28.55
2023-01-04T09:55:39.114Z,29.70
2023-01-04T09:58:08.925Z,26.85
2023-01-04T10:00:44.055Z,32.67
2023-01-04T10:03:41.582Z,28.60
2023-01-04T10:06:13.149Z,33.25
2023-01-04T10:08:42.606Z,34.33
2023-01-04T10:11:22.880Z,34.05
2023-01-04T10:14:14.952Z,27.00
2023-01-04T10:17:13.756Z,25.17
2023-01-04T10:23:31.676Z,24.80
2023-01-04T10:26:14.719Z,26.45
2023-01-04T10:29:16.848Z,26.90
2023-01-04T10:31:53.571Z,27.80
2023-01-04T10:34:27.931Z,15.95
2023-01-04T10:37:11.478Z,16.27
2023-01-04T10:39:38.196Z,23.88
2023-01-04T10:42:22.908Z,21.77
2023-01-04T10:45:19.758Z,23.83
2023-01-04T10:47:55.793Z,18.88
2023-01-04T10:50:27.573Z,19.27
2023-01-04T10:53:05.232Z,21.25
2023-01-04T10:56:24.125Z,27.13
2023-01-04T10:58:44.187Z,23.38
2023-01-04T11:01:33.574Z,22.25
2023-01-04T11:04:13.721Z,19.17
2023-01-04T11:06:46.665Z,21.67
2023-01-04T11:09:25.574Z,19.50
2023-01-04T11:11:56.522Z,16.38
2023-01-04T11:14:25.483Z,17.50
2023-01-04T11:17:00.428Z,16.45
2023-01-04T11:19:29.905Z,18.58
2023-01-04T11:22:06.423Z,17.30
2023-01-04T11:24:34.757Z,17.08
2023-01-04T11:29:40.719Z,21.02
2023-01-04T11:32:44.442Z,17.90
2023-01-04T11:35:11.177Z,33.15
2023-01-04T11:37:40.397Z,30.20
2023-01-04T11:40:19.214Z,21.70
2023-01-04T11:42:48.980Z,23.38
2023-01-04T11:45:28.812Z,21.58
2023-01-04T11:47:57.968Z,20.25
2023-01-04T11:50:40.382Z,20.33
2023-01-04T11:53:35.814Z,20.40
2023-01-04T11:56:16.177Z,15.52
2023-01-04T11:58:44.832Z,19.35
2023-01-04T12:01:30.616Z,21.67
2023-01-04T12:03:59.171Z,20.02
2023-01-04T12:09:15.254Z,23.75
2023-01-04T12:11:46.509Z,15.98
2023-01-04T12:14:36.690Z,21.45
2023-01-04T12:17:07.575Z,19.40
2023-01-04T12:19:36.550Z,20.05
2023-01-04T12:22:18.418Z,17.85
2023-01-04T12:24:46.454Z,18.10
2023-01-04T12:27:17.738Z,17.42
2023-01-04T12:29:54.577Z,20.83
2023-01-04T12:32:27.545Z,21.05
2023-01-04T12:34:55.376Z,21.73
2023-01-04T12:37:49.720Z,25.52
2023-01-04T12:40:47.954Z,20.83
2023-01-04T12:43:14.779Z,17.83
2023-01-04T12:45:48.584Z,18.40
2023-01-04T12:48:46.209Z,17.83
2023-01-04T12:51:32.729Z,17.02
2023-01-04T12:54:02.807Z,18.45
2023-01-04T12:57:06.855Z,21.42
2023-01-04T12:59:54.236Z,24.80
2023-01-04T13:03:05.956Z,26.95
2023-01-04T13:08:23.620Z,18.38
2023-01-04T13:10:52.889Z,16.88
2023-01-04T13:13:32.061Z,16.45
2023-01-04T13:16:32.002Z,20.42
2023-01-04T13:19:26.513Z,19.45
2023-01-04T13:21:54.579Z,16.70
2023-01-04T13:24:28.727Z,22.00
2023-01-04T13:26:55.553Z,21.45
2023-01-04T13:29:22.260Z,18.88
2023-01-04T13:31:49.033Z,18.27
2023-01-04T13:35:01.686Z,37.78
2023-01-04T13:37:35.125Z,24.05
2023-01-04T13:40:01.963Z,25.48
2023-01-04T13:42:30.886Z,22.52
2023-01-04T13:45:20.837Z,15.63
2023-01-04T13:47:51.710Z,21.70
2023-01-04T13:50:30.585Z,18.92
2023-01-04T13:53:07.090Z,17.90
2023-01-04T13:55:37.879Z,22.67
2023-01-04T13:58:07.541Z,24.02
2023-01-04T14:00:45.549Z,20.23
2023-01-04T14:03:21.350Z,18.10
2023-01-04T14:05:51.177Z,17.67
2023-01-04T14:08:35.127Z,25.05
2023-01-04T14:11:03.062Z,23.10
2023-01-04T14:13:29.898Z,21.25
2023-01-04T14:16:12.576Z,18.80
2023-01-04T14:18:39.448Z,46.17
2023-01-04T14:21:17.694Z,45.05
2023-01-04T14:23:44.991Z,30.27
2023-01-04T14:26:35.957Z,25.58
2023-01-04T14:29:32.491Z,20.27
2023-01-04T14:32:02.014Z,25.13
2023-01-04T14:34:28.921Z,31.50
2023-01-04T14:37:03.664Z,30.95
2023-01-04T14:39:34.079Z,31.90
2023-01-04T14:42:01.649Z,29.23
2023-01-04T14:44:30.961Z,22.33
2023-01-04T14:47:00.497Z,24.85
2023-01-04T14:49:29.411Z,25.13
2023-01-04T14:51:58.510Z,23.33
2023-01-04T14:54:27.177Z,23.02
2023-01-04T14:56:55.493Z,24.17
2023-01-04T14:59:24.822Z,27.67
2023-01-04T15:01:57.464Z,36.67
2023-01-04T15:04:25.534Z,27.10
2023-01-04T15:06:53.888Z,23.80
2023-01-04T15:09:20.920Z,24.23
2023-01-04T15:11:47.814Z,24.02
2023-01-04T15:14:14.658Z,24.17
2023-01-04T15:16:41.744Z,24.23
2023-01-04T15:19:08.866Z,26.85
2023-01-04T15:21:40.867Z,24.77
2023-01-04T15:24:09.733Z,32.10
2023-01-04T15:26:39.889Z,45.25
2023-01-04T15:29:07.052Z,46.13
2023-01-04T15:31:38.803Z,50.63
2023-01-04T15:34:07.194Z,24.77
2023-01-04T15:36:38.850Z,32.20
2023-01-04T15:39:06.045Z,24.77
2023-01-04T15:41:51.591Z,32.65
2023-01-04T15:44:18.588Z,34.03
2023-01-04T15:46:45.638Z,37.20
2023-01-04T15:49:17.174Z,31.20
2023-01-04T15:51:45.149Z,33.92
2023-01-04T15:54:12.246Z,34.83
2023-01-04T15:56:39.021Z,38.30
2023-01-04T15:59:05.904Z,38.33
2023-01-04T16:01:32.740Z,46.67
2023-01-04T16:03:59.629Z,49.05
2023-01-04T16:06:26.822Z,39.15
2023-01-04T16:08:53.610Z,42.00
2023-01-04T16:11:23.289Z,38.95
2023-01-04T16:13:52.085Z,32.95
2023-01-04T16:16:21.173Z,36.92
2023-01-04T16:18:50.291Z,32.40
2023-01-04T16:21:21.898Z,37.67
2023-01-04T16:24:05.216Z,36.17
2023-01-04T16:26:36.813Z,28.90
2023-01-04T16:29:04.160Z,32.88
2023-01-04T16:31:35.797Z,32.72
2023-01-04T16:34:03.349Z,49.65
2023-01-04T16:36:30.512Z,46.40
2023-01-04T16:38:57.580Z,43.45
2023-01-04T16:41:25.196Z,36.50
2023-01-04T16:43:55.321Z,37.08
2023-01-04T16:46:26.633Z,41.03
2023-01-04T16:48:59.118Z,37.17
2023-01-04T16:51:28.149Z,34.60
2023-01-04T16:53:55.251Z,40.05
2023-01-04T16:56:24.125Z,39.10
2023-01-04T16:58:51.931Z,45.33
2023-01-04T17:01:22.761Z,45.63
2023-01-04T17:03:51.159Z,51.92
2023-01-04T17:06:21.152Z,43.50
2023-01-04T17:08:49.601Z,40.95
2023-01-04T17:14:06.886Z,25.60
2023-01-04T17:16:35.159Z,23.98
2023-01-04T17:19:02.735Z,24.35
2023-01-04T17:21:34.924Z,24.38
2023-01-04T17:24:03.517Z,24.85
2023-01-04T17:26:32.056Z,28.70
2023-01-04T17:31:41.329Z,10.73
2023-01-04T17:34:09.954Z,15.32
2023-01-04T17:36:37.119Z,9.75
2023-01-04T17:39:03.673Z,7.18
2023-01-04T17:41:30.954Z,8.48
2023-01-04T17:49:17.778Z,8.80
2023-01-04T17:51:48.350Z,7.07
2023-01-04T17:54:15.435Z,8.13
2023-01-04T17:56:42.049Z,8.43
2023-01-04T17:59:10.120Z,6.75
2023-01-04T18:06:31.348Z,7.85
2023-01-04T18:08:58.391Z,13.05
2023-01-04T18:11:25.422Z,8.25
2023-01-04T18:13:53.206Z,8.23
2023-01-04T18:18:51.318Z,6.05
2023-01-04T18:21:28.355Z,7.25
2023-01-04T18:24:34.307Z,9.50
2023-01-04T18:27:19.061Z,7.00
2023-01-04T18:29:30.112Z,8.55
2023-01-04T18:31:56.693Z,7.93
2023-01-04T18:34:26.559Z,7.28
2023-01-04T18:36:53.523Z,8.30
2023-01-04T18:39:20.546Z,7.20
2023-01-04T18:41:47.393Z,7.88
2023-01-04T18:47:02.192Z,8.55
2023-01-04T18:49:30.833Z,8.48
2023-01-04T18:51:57.413Z,10.73
2023-01-04T18:54:24.115Z,8.68
2023-01-04T18:56:53.180Z,7.57
2023-01-04T18:59:24.117Z,7.90
2023-01-04T19:01:50.874Z,8.80
2023-01-04T19:04:19.067Z,9.63
2023-01-04T19:06:45.743Z,7.20
2023-01-04T19:09:12.369Z,7.43
2023-01-04T19:11:38.937Z,10.10
2023-01-04T19:14:05.899Z,8.25
2023-01-04T19:16:32.682Z,8.70
2023-01-04T19:18:59.985Z,7.78
2023-01-04T19:21:26.876Z,7.50
2023-01-04T19:23:53.911Z,7.57
2023-01-04T19:26:20.745Z,6.72
2023-01-04T19:28:47.845Z,6.80
2023-01-04T19:31:14.988Z,7.55
2023-01-04T19:33:41.771Z,7.22
2023-01-04T19:36:10.352Z,8.88
2023-01-04T19:38:37.591Z,6.78
2023-01-04T19:41:05.224Z,7.55
2023-01-04T19:43:31.905Z,8.77
2023-01-04T19:45:58.575Z,6.55
2023-01-04T19:48:25.273Z,7.70
2023-01-04T19:51:02.577Z,8.07
2023-01-04T19:53:29.130Z,8.35
2023-01-04T19:55:56.266Z,7.78
2023-01-04T19:58:22.866Z,8.23
2023-01-04T20:00:54.495Z,13.75
2023-01-04T20:03:22.549Z,8.35
2023-01-04T20:05:49.834Z,9.10
